sensor_id;sensor_type;location;lat;lon;timestamp;P1;durP1;ratioP1;P2;durP2;ratioP2
33268;SDS011;19640;50.944;5.260;2024-01-30T00:01:36;7.88;;;7.03;;
33268;SDS011;19640;50.944;5.260;2024-01-30T00:04:02;9.35;;;7.70;;
33268;SDS011;19640;50.944;5.260;2024-01-30T00:06:27;9.48;;;7.60;;
33268;SDS011;19640;50.944;5.260;2024-01-30T00:08:53;7.32;;;6.20;;
33268;SDS011;19640;50.944;5.260;2024-01-30T00:11:19;10.18;;;7.15;;
33268;SDS011;19640;50.944;5.260;2024-01-30T00:13:45;8.18;;;6.30;;
33268;SDS011;19640;50.944;5.260;2024-01-30T00:16:23;6.85;;;6.15;;
33268;SDS011;19640;50.944;5.260;2024-01-30T00:18:52;7.80;;;7.00;;
33268;SDS011;19640;50.944;5.260;2024-01-30T00:21:19;9.95;;;6.07;;
33268;SDS011;19640;50.944;5.260;2024-01-30T00:23:45;9.57;;;7.07;;
33268;SDS011;19640;50.944;5.260;2024-01-30T00:26:11;8.00;;;6.57;;
33268;SDS011;19640;50.944;5.260;2024-01-30T00:28:38;8.43;;;6.22;;
33268;SDS011;19640;50.944;5.260;2024-01-30T00:31:04;6.72;;;6.03;;
33268;SDS011;19640;50.944;5.260;2024-01-30T00:33:29;8.65;;;5.55;;
33268;SDS011;19640;50.944;5.260;2024-01-30T00:35:55;9.77;;;5.97;;
33268;SDS011;19640;50.944;5.260;2024-01-30T00:38:21;11.68;;;6.60;;
33268;SDS011;19640;50.944;5.260;2024-01-30T00:40:47;9.88;;;6.03;;
33268;SDS011;19640;50.944;5.260;2024-01-30T00:43:13;9.77;;;6.70;;
33268;SDS011;19640;50.944;5.260;2024-01-30T00:45:40;9.18;;;6.43;;
33268;SDS011;19640;50.944;5.260;2024-01-30T00:48:05;10.02;;;7.05;;
33268;SDS011;19640;50.944;5.260;2024-01-30T00:50:31;9.63;;;6.68;;
33268;SDS011;19640;50.944;5.260;2024-01-30T00:52:57;9.77;;;7.32;;
33268;SDS011;19640;50.944;5.260;2024-01-30T00:55:22;8.07;;;6.40;;
33268;SDS011;19640;50.944;5.260;2024-01-30T00:57:48;8.73;;;7.22;;
33268;SDS011;19640;50.944;5.260;2024-01-30T01:00:14;12.13;;;6.95;;
33268;SDS011;19640;50.944;5.260;2024-01-30T01:02:43;12.50;;;7.45;;
33268;SDS011;19640;50.944;5.260;2024-01-30T01:05:09;13.73;;;7.93;;
33268;SDS011;19640;50.944;5.260;2024-01-30T01:07:35;13.40;;;7.28;;
33268;SDS011;19640;50.944;5.260;2024-01-30T01:10:01;10.68;;;7.30;;
33268;SDS011;19640;50.944;5.260;2024-01-30T01:12:27;9.32;;;7.03;;
33268;SDS011;19640;50.944;5.260;2024-01-30T01:14:53;9.32;;;7.30;;
33268;SDS011;19640;50.944;5.260;2024-01-30T01:17:19;13.73;;;7.07;;
33268;SDS011;19640;50.944;5.260;2024-01-30T01:19:45;9.30;;;8.07;;
33268;SDS011;19640;50.944;5.260;2024-01-30T01:22:10;7.57;;;6.57;;
33268;SDS011;19640;50.944;5.260;2024-01-30T01:24:36;7.93;;;5.95;;
33268;SDS011;19640;50.944;5.260;2024-01-30T01:27:02;9.30;;;6.70;;
33268;SDS011;19640;50.944;5.260;2024-01-30T01:29:28;8.80;;;6.53;;
33268;SDS011;19640;50.944;5.260;2024-01-30T01:31:57;9.90;;;7.18;;
33268;SDS011;19640;50.944;5.260;2024-01-30T01:34:23;11.35;;;8.20;;
33268;SDS011;19640;50.944;5.260;2024-01-30T01:36:50;11.15;;;7.65;;
33268;SDS011;19640;50.944;5.260;2024-01-30T01:39:16;10.52;;;7.32;;
33268;SDS011;19640;50.944;5.260;2024-01-30T01:41:42;8.75;;;6.95;;
33268;SDS011;19640;50.944;5.260;2024-01-30T01:44:08;9.35;;;6.97;;
33268;SDS011;19640;50.944;5.260;2024-01-30T01:46:34;8.45;;;7.55;;
33268;SDS011;19640;50.944;5.260;2024-01-30T01:49:00;16.10;;;7.65;;
33268;SDS011;19640;50.944;5.260;2024-01-30T01:51:28;9.32;;;6.50;;
33268;SDS011;19640;50.944;5.260;2024-01-30T01:53:56;10.57;;;6.32;;
33268;SDS011;19640;50.944;5.260;2024-01-30T01:56:23;6.63;;;5.93;;
33268;SDS011;19640;50.944;5.260;2024-01-30T01:58:51;11.48;;;6.13;;
33268;SDS011;19640;50.944;5.260;2024-01-30T02:01:19;8.88;;;6.55;;
33268;SDS011;19640;50.944;5.260;2024-01-30T02:03:46;8.00;;;6.22;;
33268;SDS011;19640;50.944;5.260;2024-01-30T02:06:15;10.07;;;6.10;;
33268;SDS011;19640;50.944;5.260;2024-01-30T02:08:42;7.43;;;6.28;;
33268;SDS011;19640;50.944;5.260;2024-01-30T02:11:07;8.13;;;5.88;;
33268;SDS011;19640;50.944;5.260;2024-01-30T02:13:35;8.43;;;5.45;;
33268;SDS011;19640;50.944;5.260;2024-01-30T02:16:01;8.57;;;6.07;;
33268;SDS011;19640;50.944;5.260;2024-01-30T02:18:27;7.78;;;6.35;;
33268;SDS011;19640;50.944;5.260;2024-01-30T02:20:53;14.57;;;6.57;;
33268;SDS011;19640;50.944;5.260;2024-01-30T02:23:21;9.20;;;6.13;;
33268;SDS011;19640;50.944;5.260;2024-01-30T02:25:52;9.15;;;6.60;;
33268;SDS011;19640;50.944;5.260;2024-01-30T02:28:18;9.85;;;6.25;;
33268;SDS011;19640;50.944;5.260;2024-01-30T02:30:45;7.80;;;6.40;;
33268;SDS011;19640;50.944;5.260;2024-01-30T02:33:11;7.72;;;6.55;;
33268;SDS011;19640;50.944;5.260;2024-01-30T02:35:37;8.65;;;6.63;;
33268;SDS011;19640;50.944;5.260;2024-01-30T02:38:04;8.02;;;6.05;;
33268;SDS011;19640;50.944;5.260;2024-01-30T02:40:30;7.50;;;5.82;;
33268;SDS011;19640;50.944;5.260;2024-01-30T02:42:56;8.85;;;6.43;;
33268;SDS011;19640;50.944;5.260;2024-01-30T02:45:23;6.60;;;5.93;;
33268;SDS011;19640;50.944;5.260;2024-01-30T02:47:48;6.10;;;5.50;;
33268;SDS011;19640;50.944;5.260;2024-01-30T02:50:14;7.85;;;5.70;;
33268;SDS011;19640;50.944;5.260;2024-01-30T02:52:40;7.65;;;5.68;;
33268;SDS011;19640;50.944;5.260;2024-01-30T02:55:06;9.90;;;5.63;;
33268;SDS011;19640;50.944;5.260;2024-01-30T02:57:32;5.90;;;5.30;;
33268;SDS011;19640;50.944;5.260;2024-01-30T02:59:57;5.70;;;5.10;;
33268;SDS011;19640;50.944;5.260;2024-01-30T03:02:23;8.38;;;6.32;;
33268;SDS011;19640;50.944;5.260;2024-01-30T03:04:49;9.48;;;5.85;;
33268;SDS011;19640;50.944;5.260;2024-01-30T03:07:15;8.75;;;5.93;;
33268;SDS011;19640;50.944;5.260;2024-01-30T03:09:43;7.20;;;5.72;;
33268;SDS011;19640;50.944;5.260;2024-01-30T03:12:09;7.43;;;5.70;;
33268;SDS011;19640;50.944;5.260;2024-01-30T03:14:35;12.50;;;5.63;;
33268;SDS011;19640;50.944;5.260;2024-01-30T03:17:01;5.95;;;5.35;;
33268;SDS011;19640;50.944;5.260;2024-01-30T03:19:27;6.75;;;5.53;;
33268;SDS011;19640;50.944;5.260;2024-01-30T03:21:53;9.95;;;5.68;;
33268;SDS011;19640;50.944;5.260;2024-01-30T03:24:19;8.70;;;6.35;;
33268;SDS011;19640;50.944;5.260;2024-01-30T03:26:44;8.10;;;5.78;;
33268;SDS011;19640;50.944;5.260;2024-01-30T03:29:10;6.57;;;5.45;;
33268;SDS011;19640;50.944;5.260;2024-01-30T03:31:36;8.70;;;5.78;;
33268;SDS011;19640;50.944;5.260;2024-01-30T03:34:02;7.55;;;5.65;;
33268;SDS011;19640;50.944;5.260;2024-01-30T03:36:28;6.10;;;5.38;;
33268;SDS011;19640;50.944;5.260;2024-01-30T03:38:53;8.45;;;5.07;;
33268;SDS011;19640;50.944;5.260;2024-01-30T03:41:19;10.10;;;5.68;;
33268;SDS011;19640;50.944;5.260;2024-01-30T03:43:46;6.53;;;5.35;;
33268;SDS011;19640;50.944;5.260;2024-01-30T03:46:12;7.25;;;5.10;;
33268;SDS011;19640;50.944;5.260;2024-01-30T03:48:38;7.60;;;4.82;;
33268;SDS011;19640;50.944;5.260;2024-01-30T03:51:04;9.77;;;5.05;;
33268;SDS011;19640;50.944;5.260;2024-01-30T03:53:30;6.32;;;5.22;;
33268;SDS011;19640;50.944;5.260;2024-01-30T03:55:56;6.68;;;4.90;;
33268;SDS011;19640;50.944;5.260;2024-01-30T03:58:21;7.10;;;5.03;;
33268;SDS011;19640;50.944;5.260;2024-01-30T04:00:47;6.40;;;5.05;;
33268;SDS011;19640;50.944;5.260;2024-01-30T04:03:16;5.78;;;4.38;;
33268;SDS011;19640;50.944;5.260;2024-01-30T04:05:42;7.28;;;5.00;;
33268;SDS011;19640;50.944;5.260;2024-01-30T04:08:08;5.38;;;4.72;;
33268;SDS011;19640;50.944;5.260;2024-01-30T04:10:33;5.38;;;4.30;;
33268;SDS011;19640;50.944;5.260;2024-01-30T04:12:59;6.20;;;4.93;;
33268;SDS011;19640;50.944;5.260;2024-01-30T04:15:25;6.35;;;4.30;;
33268;SDS011;19640;50.944;5.260;2024-01-30T04:17:52;6.85;;;4.45;;
33268;SDS011;19640;50.944;5.260;2024-01-30T04:20:17;5.05;;;4.55;;
33268;SDS011;19640;50.944;5.260;2024-01-30T04:22:43;6.15;;;4.43;;
33268;SDS011;19640;50.944;5.260;2024-01-30T04:25:10;5.03;;;4.20;;
33268;SDS011;19640;50.944;5.260;2024-01-30T04:27:36;8.73;;;4.93;;
33268;SDS011;19640;50.944;5.260;2024-01-30T04:30:02;5.72;;;4.65;;
33268;SDS011;19640;50.944;5.260;2024-01-30T04:32:28;8.52;;;4.10;;
33268;SDS011;19640;50.944;5.260;2024-01-30T04:34:54;4.50;;;3.60;;
33268;SDS011;19640;50.944;5.260;2024-01-30T04:37:20;7.13;;;4.00;;
33268;SDS011;19640;50.944;5.260;2024-01-30T04:39:46;5.43;;;3.67;;
33268;SDS011;19640;50.944;5.260;2024-01-30T04:42:11;4.68;;;3.83;;
33268;SDS011;19640;50.944;5.260;2024-01-30T04:44:37;7.10;;;4.07;;
33268;SDS011;19640;50.944;5.260;2024-01-30T04:47:03;5.03;;;4.20;;
33268;SDS011;19640;50.944;5.260;2024-01-30T04:49:31;6.95;;;4.70;;
33268;SDS011;19640;50.944;5.260;2024-01-30T04:51:56;8.02;;;4.53;;
33268;SDS011;19640;50.944;5.260;2024-01-30T04:54:23;5.82;;;4.25;;
33268;SDS011;19640;50.944;5.260;2024-01-30T04:56:48;5.22;;;4.03;;
33268;SDS011;19640;50.944;5.260;2024-01-30T04:59:14;6.32;;;3.75;;
33268;SDS011;19640;50.944;5.260;2024-01-30T05:01:40;4.65;;;3.72;;
33268;SDS011;19640;50.944;5.260;2024-01-30T05:04:08;6.40;;;3.92;;
33268;SDS011;19640;50.944;5.260;2024-01-30T05:06:34;5.13;;;4.13;;
33268;SDS011;19640;50.944;5.260;2024-01-30T05:09:00;6.57;;;3.80;;
33268;SDS011;19640;50.944;5.260;2024-01-30T05:11:25;8.02;;;4.93;;
33268;SDS011;19640;50.944;5.260;2024-01-30T05:13:51;5.47;;;3.90;;
33268;SDS011;19640;50.944;5.260;2024-01-30T05:16:17;5.43;;;3.97;;
33268;SDS011;19640;50.944;5.260;2024-01-30T05:18:43;5.63;;;4.40;;
33268;SDS011;19640;50.944;5.260;2024-01-30T05:21:09;5.57;;;4.47;;
33268;SDS011;19640;50.944;5.260;2024-01-30T05:23:35;10.02;;;4.30;;
33268;SDS011;19640;50.944;5.260;2024-01-30T05:26:01;5.03;;;4.18;;
33268;SDS011;19640;50.944;5.260;2024-01-30T05:28:28;11.63;;;3.80;;
33268;SDS011;19640;50.944;5.260;2024-01-30T05:30:57;5.55;;;4.20;;
33268;SDS011;19640;50.944;5.260;2024-01-30T05:33:22;4.55;;;4.05;;
33268;SDS011;19640;50.944;5.260;2024-01-30T05:35:48;6.32;;;4.18;;
33268;SDS011;19640;50.944;5.260;2024-01-30T05:38:15;5.30;;;4.70;;
33268;SDS011;19640;50.944;5.260;2024-01-30T05:40:41;6.07;;;4.10;;
33268;SDS011;19640;50.944;5.260;2024-01-30T05:43:07;5.38;;;4.57;;
33268;SDS011;19640;50.944;5.260;2024-01-30T05:45:33;4.85;;;3.97;;
33268;SDS011;19640;50.944;5.260;2024-01-30T05:48:00;6.45;;;4.78;;
33268;SDS011;19640;50.944;5.260;2024-01-30T05:50:26;7.13;;;4.45;;
33268;SDS011;19640;50.944;5.260;2024-01-30T05:52:52;5.03;;;4.30;;
33268;SDS011;19640;50.944;5.260;2024-01-30T05:55:18;5.78;;;4.75;;
33268;SDS011;19640;50.944;5.260;2024-01-30T05:57:44;5.57;;;5.03;;
33268;SDS011;19640;50.944;5.260;2024-01-30T06:00:09;7.05;;;4.50;;
33268;SDS011;19640;50.944;5.260;2024-01-30T06:02:36;7.05;;;4.80;;
33268;SDS011;19640;50.944;5.260;2024-01-30T06:05:02;6.95;;;5.15;;
33268;SDS011;19640;50.944;5.260;2024-01-30T06:07:27;8.25;;;5.25;;
33268;SDS011;19640;50.944;5.260;2024-01-30T06:09:53;6.47;;;4.75;;
33268;SDS011;19640;50.944;5.260;2024-01-30T06:12:19;4.78;;;4.18;;
33268;SDS011;19640;50.944;5.260;2024-01-30T06:14:44;5.00;;;4.32;;
33268;SDS011;19640;50.944;5.260;2024-01-30T06:17:10;7.43;;;4.50;;
33268;SDS011;19640;50.944;5.260;2024-01-30T06:19:37;5.75;;;4.80;;
33268;SDS011;19640;50.944;5.260;2024-01-30T06:22:04;8.02;;;5.25;;
33268;SDS011;19640;50.944;5.260;2024-01-30T06:24:30;5.05;;;4.20;;
33268;SDS011;19640;50.944;5.260;2024-01-30T06:26:55;5.80;;;4.05;;
33268;SDS011;19640;50.944;5.260;2024-01-30T06:29:21;9.88;;;4.97;;
33268;SDS011;19640;50.944;5.260;2024-01-30T06:31:47;6.57;;;4.60;;
33268;SDS011;19640;50.944;5.260;2024-01-30T06:34:12;8.25;;;4.80;;
33268;SDS011;19640;50.944;5.260;2024-01-30T06:36:38;5.13;;;4.15;;
33268;SDS011;19640;50.944;5.260;2024-01-30T06:39:04;5.57;;;4.78;;
33268;SDS011;19640;50.944;5.260;2024-01-30T06:41:30;5.35;;;4.25;;
33268;SDS011;19640;50.944;5.260;2024-01-30T06:43:56;7.93;;;4.85;;
33268;SDS011;19640;50.944;5.260;2024-01-30T06:46:22;8.95;;;4.55;;
33268;SDS011;19640;50.944;5.260;2024-01-30T06:48:47;6.70;;;4.20;;
33268;SDS011;19640;50.944;5.260;2024-01-30T06:51:13;10.02;;;4.57;;
33268;SDS011;19640;50.944;5.260;2024-01-30T06:53:39;4.95;;;3.65;;
33268;SDS011;19640;50.944;5.260;2024-01-30T06:56:05;4.57;;;3.95;;
33268;SDS011;19640;50.944;5.260;2024-01-30T06:58:31;6.53;;;4.43;;
33268;SDS011;19640;50.944;5.260;2024-01-30T07:00:57;7.30;;;4.32;;
33268;SDS011;19640;50.944;5.260;2024-01-30T07:03:23;6.47;;;4.70;;
33268;SDS011;19640;50.944;5.260;2024-01-30T07:05:49;10.25;;;4.18;;
33268;SDS011;19640;50.944;5.260;2024-01-30T07:08:15;7.03;;;4.22;;
33268;SDS011;19640;50.944;5.260;2024-01-30T07:10:44;6.07;;;4.53;;
33268;SDS011;19640;50.944;5.260;2024-01-30T07:13:12;6.53;;;4.78;;
33268;SDS011;19640;50.944;5.260;2024-01-30T07:15:41;8.15;;;4.90;;
33268;SDS011;19640;50.944;5.260;2024-01-30T07:18:07;7.38;;;4.35;;
33268;SDS011;19640;50.944;5.260;2024-01-30T07:20:34;7.00;;;4.38;;
33268;SDS011;19640;50.944;5.260;2024-01-30T07:23:00;5.15;;;4.65;;
33268;SDS011;19640;50.944;5.260;2024-01-30T07:25:27;5.25;;;4.70;;
33268;SDS011;19640;50.944;5.260;2024-01-30T07:27:54;5.95;;;4.20;;
33268;SDS011;19640;50.944;5.260;2024-01-30T07:30:21;5.72;;;4.70;;
33268;SDS011;19640;50.944;5.260;2024-01-30T07:32:47;6.47;;;5.07;;
33268;SDS011;19640;50.944;5.260;2024-01-30T07:35:13;5.82;;;4.40;;
33268;SDS011;19640;50.944;5.260;2024-01-30T07:37:39;7.03;;;4.90;;
33268;SDS011;19640;50.944;5.260;2024-01-30T07:40:05;7.25;;;5.20;;
33268;SDS011;19640;50.944;5.260;2024-01-30T07:42:32;7.47;;;5.07;;
33268;SDS011;19640;50.944;5.260;2024-01-30T07:44:58;9.32;;;4.72;;
33268;SDS011;19640;50.944;5.260;2024-01-30T07:47:25;6.30;;;4.55;;
33268;SDS011;19640;50.944;5.260;2024-01-30T07:49:50;8.15;;;5.00;;
33268;SDS011;19640;50.944;5.260;2024-01-30T07:52:16;5.93;;;4.35;;
33268;SDS011;19640;50.944;5.260;2024-01-30T07:54:42;8.98;;;5.10;;
33268;SDS011;19640;50.944;5.260;2024-01-30T07:57:07;7.80;;;4.85;;
33268;SDS011;19640;50.944;5.260;2024-01-30T07:59:33;4.72;;;4.03;;
33268;SDS011;19640;50.944;5.260;2024-01-30T08:01:59;7.90;;;4.10;;
33268;SDS011;19640;50.944;5.260;2024-01-30T08:04:26;6.60;;;4.97;;
33268;SDS011;19640;50.944;5.260;2024-01-30T08:06:52;4.90;;;4.40;;
33268;SDS011;19640;50.944;5.260;2024-01-30T08:09:18;6.45;;;4.82;;
33268;SDS011;19640;50.944;5.260;2024-01-30T08:11:43;6.43;;;4.70;;
33268;SDS011;19640;50.944;5.260;2024-01-30T08:14:09;5.75;;;4.85;;
33268;SDS011;19640;50.944;5.260;2024-01-30T08:16:35;6.63;;;4.78;;
33268;SDS011;19640;50.944;5.260;2024-01-30T08:19:00;6.53;;;5.43;;
33268;SDS011;19640;50.944;5.260;2024-01-30T08:21:26;6.10;;;4.85;;
33268;SDS011;19640;50.944;5.260;2024-01-30T08:23:52;8.50;;;5.75;;
33268;SDS011;19640;50.944;5.260;2024-01-30T08:26:18;6.15;;;5.05;;
33268;SDS011;19640;50.944;5.260;2024-01-30T08:28:43;7.15;;;5.13;;
33268;SDS011;19640;50.944;5.260;2024-01-30T08:31:10;7.10;;;4.85;;
33268;SDS011;19640;50.944;5.260;2024-01-30T08:33:37;8.23;;;5.07;;
33268;SDS011;19640;50.944;5.260;2024-01-30T08:36:02;6.35;;;4.55;;
33268;SDS011;19640;50.944;5.260;2024-01-30T08:38:28;7.15;;;5.50;;
33268;SDS011;19640;50.944;5.260;2024-01-30T08:40:54;4.85;;;4.35;;
33268;SDS011;19640;50.944;5.260;2024-01-30T08:43:21;6.63;;;4.30;;
33268;SDS011;19640;50.944;5.260;2024-01-30T08:45:46;8.18;;;4.75;;
33268;SDS011;19640;50.944;5.260;2024-01-30T08:48:12;7.82;;;5.10;;
33268;SDS011;19640;50.944;5.260;2024-01-30T08:50:38;5.95;;;4.43;;
33268;SDS011;19640;50.944;5.260;2024-01-30T08:53:04;5.03;;;4.38;;
33268;SDS011;19640;50.944;5.260;2024-01-30T08:55:29;8.10;;;5.07;;
33268;SDS011;19640;50.944;5.260;2024-01-30T08:57:56;8.30;;;5.50;;
33268;SDS011;19640;50.944;5.260;2024-01-30T09:00:21;7.95;;;5.25;;
33268;SDS011;19640;50.944;5.260;2024-01-30T09:02:47;8.13;;;4.88;;
33268;SDS011;19640;50.944;5.260;2024-01-30T09:05:13;6.15;;;4.97;;
33268;SDS011;19640;50.944;5.260;2024-01-30T09:07:38;5.97;;;4.65;;
33268;SDS011;19640;50.944;5.260;2024-01-30T09:10:04;6.05;;;4.90;;
33268;SDS011;19640;50.944;5.260;2024-01-30T09:12:30;5.97;;;5.00;;
33268;SDS011;19640;50.944;5.260;2024-01-30T09:14:56;5.72;;;4.25;;
33268;SDS011;19640;50.944;5.260;2024-01-30T09:17:22;5.53;;;4.63;;
33268;SDS011;19640;50.944;5.260;2024-01-30T09:19:47;7.80;;;4.75;;
33268;SDS011;19640;50.944;5.260;2024-01-30T09:22:13;5.95;;;4.68;;
33268;SDS011;19640;50.944;5.260;2024-01-30T09:24:39;6.82;;;4.63;;
33268;SDS011;19640;50.944;5.260;2024-01-30T09:27:05;6.63;;;4.93;;
33268;SDS011;19640;50.944;5.260;2024-01-30T09:29:31;6.68;;;4.57;;
33268;SDS011;19640;50.944;5.260;2024-01-30T09:31:59;5.85;;;4.80;;
33268;SDS011;19640;50.944;5.260;2024-01-30T09:34:25;7.88;;;4.78;;
33268;SDS011;19640;50.944;5.260;2024-01-30T09:36:50;5.45;;;4.40;;
33268;SDS011;19640;50.944;5.260;2024-01-30T09:39:16;7.70;;;5.13;;
33268;SDS011;19640;50.944;5.260;2024-01-30T09:41:44;6.50;;;4.70;;
33268;SDS011;19640;50.944;5.260;2024-01-30T09:44:17;6.93;;;4.93;;
33268;SDS011;19640;50.944;5.260;2024-01-30T09:46:45;7.63;;;4.80;;
33268;SDS011;19640;50.944;5.260;2024-01-30T09:49:13;8.05;;;4.15;;
33268;SDS011;19640;50.944;5.260;2024-01-30T09:51:39;8.25;;;5.03;;
33268;SDS011;19640;50.944;5.260;2024-01-30T09:54:06;7.80;;;4.55;;
33268;SDS011;19640;50.944;5.260;2024-01-30T09:56:34;7.82;;;5.07;;
33268;SDS011;19640;50.944;5.260;2024-01-30T09:59:00;8.68;;;4.90;;
33268;SDS011;19640;50.944;5.260;2024-01-30T10:01:26;7.45;;;4.72;;
33268;SDS011;19640;50.944;5.260;2024-01-30T10:03:52;6.53;;;4.68;;
33268;SDS011;19640;50.944;5.260;2024-01-30T10:06:18;5.97;;;4.70;;
33268;SDS011;19640;50.944;5.260;2024-01-30T10:08:46;9.30;;;4.70;;
33268;SDS011;19640;50.944;5.260;2024-01-30T10:11:11;7.80;;;4.90;;
33268;SDS011;19640;50.944;5.260;2024-01-30T10:13:38;9.25;;;5.00;;
33268;SDS011;19640;50.944;5.260;2024-01-30T10:16:04;6.85;;;5.13;;
33268;SDS011;19640;50.944;5.260;2024-01-30T10:18:31;7.65;;;5.28;;
33268;SDS011;19640;50.944;5.260;2024-01-30T10:20:58;9.45;;;5.25;;
33268;SDS011;19640;50.944;5.260;2024-01-30T10:23:24;6.78;;;5.25;;
33268;SDS011;19640;50.944;5.260;2024-01-30T10:25:53;12.15;;;5.57;;
33268;SDS011;19640;50.944;5.260;2024-01-30T10:28:19;13.57;;;5.93;;
33268;SDS011;19640;50.944;5.260;2024-01-30T10:30:46;6.05;;;5.00;;
33268;SDS011;19640;50.944;5.260;2024-01-30T10:33:22;7.72;;;5.40;;
33268;SDS011;19640;50.944;5.260;2024-01-30T10:35:47;11.38;;;5.32;;
33268;SDS011;19640;50.944;5.260;2024-01-30T10:38:15;9.35;;;5.22;;
33268;SDS011;19640;50.944;5.260;2024-01-30T10:40:43;12.38;;;5.57;;
33268;SDS011;19640;50.944;5.260;2024-01-30T10:43:12;10.98;;;6.15;;
33268;SDS011;19640;50.944;5.260;2024-01-30T10:45:44;19.45;;;5.88;;
33268;SDS011;19640;50.944;5.260;2024-01-30T10:48:14;10.18;;;5.93;;
33268;SDS011;19640;50.944;5.260;2024-01-30T10:50:41;10.00;;;5.80;;
33268;SDS011;19640;50.944;5.260;2024-01-30T10:53:08;10.65;;;6.07;;
33268;SDS011;19640;50.944;5.260;2024-01-30T10:55:35;9.80;;;6.10;;
33268;SDS011;19640;50.944;5.260;2024-01-30T10:58:03;9.70;;;6.43;;
33268;SDS011;19640;50.944;5.260;2024-01-30T11:00:30;7.15;;;5.32;;
33268;SDS011;19640;50.944;5.260;2024-01-30T11:02:58;11.32;;;6.43;;
33268;SDS011;19640;50.944;5.260;2024-01-30T11:05:24;11.85;;;6.43;;
33268;SDS011;19640;50.944;5.260;2024-01-30T11:07:54;8.70;;;5.88;;
33268;SDS011;19640;50.944;5.260;2024-01-30T11:10:19;11.13;;;6.30;;
33268;SDS011;19640;50.944;5.260;2024-01-30T11:12:45;10.70;;;6.28;;
33268;SDS011;19640;50.944;5.260;2024-01-30T11:15:15;11.25;;;6.00;;
33268;SDS011;19640;50.944;5.260;2024-01-30T11:20:19;10.05;;;6.38;;
33268;SDS011;19640;50.944;5.260;2024-01-30T11:22:46;8.48;;;6.10;;
33268;SDS011;19640;50.944;5.260;2024-01-30T11:25:13;9.82;;;6.55;;
33268;SDS011;19640;50.944;5.260;2024-01-30T11:27:40;10.35;;;6.07;;
33268;SDS011;19640;50.944;5.260;2024-01-30T11:30:07;11.60;;;6.55;;
33268;SDS011;19640;50.944;5.260;2024-01-30T11:32:33;13.13;;;7.03;;
33268;SDS011;19640;50.944;5.260;2024-01-30T11:34:59;11.98;;;6.80;;
33268;SDS011;19640;50.944;5.260;2024-01-30T11:37:25;11.70;;;6.50;;
33268;SDS011;19640;50.944;5.260;2024-01-30T11:39:54;9.57;;;6.35;;
33268;SDS011;19640;50.944;5.260;2024-01-30T11:42:21;11.13;;;7.03;;
33268;SDS011;19640;50.944;5.260;2024-01-30T11:44:49;12.32;;;6.65;;
33268;SDS011;19640;50.944;5.260;2024-01-30T11:47:16;12.73;;;7.65;;
33268;SDS011;19640;50.944;5.260;2024-01-30T11:49:42;15.45;;;7.45;;
33268;SDS011;19640;50.944;5.260;2024-01-30T11:52:09;11.27;;;7.20;;
33268;SDS011;19640;50.944;5.260;2024-01-30T11:54:35;8.57;;;7.18;;
33268;SDS011;19640;50.944;5.260;2024-01-30T11:57:01;10.80;;;7.03;;
33268;SDS011;19640;50.944;5.260;2024-01-30T11:59:26;11.10;;;7.22;;
33268;SDS011;19640;50.944;5.260;2024-01-30T12:01:52;11.90;;;7.40;;
33268;SDS011;19640;50.944;5.260;2024-01-30T12:04:18;12.48;;;7.25;;
33268;SDS011;19640;50.944;5.260;2024-01-30T12:06:43;8.48;;;6.18;;
33268;SDS011;19640;50.944;5.260;2024-01-30T12:09:09;13.55;;;7.90;;
33268;SDS011;19640;50.944;5.260;2024-01-30T12:11:46;15.27;;;7.43;;
33268;SDS011;19640;50.944;5.260;2024-01-30T12:14:13;10.57;;;7.38;;
33268;SDS011;19640;50.944;5.260;2024-01-30T12:16:40;15.05;;;7.68;;
33268;SDS011;19640;50.944;5.260;2024-01-30T12:19:06;18.52;;;7.78;;
33268;SDS011;19640;50.944;5.260;2024-01-30T12:21:33;20.85;;;8.23;;
33268;SDS011;19640;50.944;5.260;2024-01-30T12:24:00;12.50;;;8.20;;
33268;SDS011;19640;50.944;5.260;2024-01-30T12:26:26;15.13;;;8.07;;
33268;SDS011;19640;50.944;5.260;2024-01-30T12:28:55;11.90;;;8.50;;
33268;SDS011;19640;50.944;5.260;2024-01-30T12:31:26;11.48;;;8.50;;
33268;SDS011;19640;50.944;5.260;2024-01-30T12:33:53;10.85;;;7.07;;
33268;SDS011;19640;50.944;5.260;2024-01-30T12:36:19;12.20;;;5.03;;
33268;SDS011;19640;50.944;5.260;2024-01-30T12:38:45;11.57;;;5.10;;
33268;SDS011;19640;50.944;5.260;2024-01-30T12:41:11;8.52;;;4.05;;
33268;SDS011;19640;50.944;5.260;2024-01-30T12:43:37;5.63;;;3.70;;
33268;SDS011;19640;50.944;5.260;2024-01-30T12:46:03;6.90;;;3.55;;
33268;SDS011;19640;50.944;5.260;2024-01-30T12:48:29;6.13;;;4.05;;
33268;SDS011;19640;50.944;5.260;2024-01-30T12:50:55;8.82;;;4.28;;
33268;SDS011;19640;50.944;5.260;2024-01-30T12:53:21;9.02;;;4.53;;
33268;SDS011;19640;50.944;5.260;2024-01-30T12:55:47;6.13;;;4.07;;
33268;SDS011;19640;50.944;5.260;2024-01-30T12:58:14;9.55;;;3.80;;
33268;SDS011;19640;50.944;5.260;2024-01-30T13:00:41;4.78;;;3.08;;
33268;SDS011;19640;50.944;5.260;2024-01-30T13:03:08;4.32;;;2.50;;
33268;SDS011;19640;50.944;5.260;2024-01-30T13:05:35;3.97;;;1.80;;
33268;SDS011;19640;50.944;5.260;2024-01-30T13:08:01;3.83;;;2.15;;
33268;SDS011;19640;50.944;5.260;2024-01-30T13:10:26;3.28;;;1.70;;
33268;SDS011;19640;50.944;5.260;2024-01-30T13:12:52;5.80;;;1.63;;
33268;SDS011;19640;50.944;5.260;2024-01-30T13:15:18;2.35;;;1.58;;
33268;SDS011;19640;50.944;5.260;2024-01-30T13:17:44;2.28;;;1.20;;
33268;SDS011;19640;50.944;5.260;2024-01-30T13:20:12;2.63;;;1.23;;
33268;SDS011;19640;50.944;5.260;2024-01-30T13:22:43;3.47;;;1.20;;
33268;SDS011;19640;50.944;5.260;2024-01-30T13:25:08;3.13;;;1.00;;
33268;SDS011;19640;50.944;5.260;2024-01-30T13:27:34;5.07;;;1.10;;
33268;SDS011;19640;50.944;5.260;2024-01-30T13:30:01;2.88;;;1.17;;
33268;SDS011;19640;50.944;5.260;2024-01-30T13:32:26;2.35;;;0.90;;
33268;SDS011;19640;50.944;5.260;2024-01-30T13:34:52;1.23;;;0.95;;
33268;SDS011;19640;50.944;5.260;2024-01-30T13:37:18;0.77;;;0.50;;
33268;SDS011;19640;50.944;5.260;2024-01-30T13:39:43;3.67;;;0.70;;
33268;SDS011;19640;50.944;5.260;2024-01-30T13:42:09;0.77;;;0.47;;
33268;SDS011;19640;50.944;5.260;2024-01-30T13:44:37;0.70;;;0.50;;
33268;SDS011;19640;50.944;5.260;2024-01-30T13:47:03;1.85;;;0.52;;
33268;SDS011;19640;50.944;5.260;2024-01-30T13:49:29;1.77;;;0.60;;
33268;SDS011;19640;50.944;5.260;2024-01-30T13:51:54;1.40;;;0.55;;
33268;SDS011;19640;50.944;5.260;2024-01-30T13:54:20;2.78;;;0.77;;
33268;SDS011;19640;50.944;5.260;2024-01-30T13:56:46;1.05;;;0.40;;
33268;SDS011;19640;50.944;5.260;2024-01-30T13:59:11;4.60;;;0.55;;
33268;SDS011;19640;50.944;5.260;2024-01-30T14:01:37;1.02;;;0.38;;
33268;SDS011;19640;50.944;5.260;2024-01-30T14:04:03;1.05;;;0.65;;
33268;SDS011;19640;50.944;5.260;2024-01-30T14:06:28;1.42;;;0.40;;
33268;SDS011;19640;50.944;5.260;2024-01-30T14:08:54;2.63;;;0.38;;
33268;SDS011;19640;50.944;5.260;2024-01-30T14:11:20;3.40;;;0.40;;
33268;SDS011;19640;50.944;5.260;2024-01-30T14:13:46;1.67;;;0.50;;
33268;SDS011;19640;50.944;5.260;2024-01-30T14:16:11;0.60;;;0.38;;
33268;SDS011;19640;50.944;5.260;2024-01-30T14:18:37;2.75;;;0.30;;
33268;SDS011;19640;50.944;5.260;2024-01-30T14:21:03;0.80;;;0.50;;
33268;SDS011;19640;50.944;5.260;2024-01-30T14:23:28;2.10;;;0.30;;
33268;SDS011;19640;50.944;5.260;2024-01-30T14:25:54;2.75;;;0.50;;
33268;SDS011;19640;50.944;5.260;2024-01-30T14:28:20;2.60;;;0.60;;
33268;SDS011;19640;50.944;5.260;2024-01-30T14:30:46;1.02;;;0.30;;
33268;SDS011;19640;50.944;5.260;2024-01-30T14:33:12;1.20;;;0.30;;
33268;SDS011;19640;50.944;5.260;2024-01-30T14:35:38;1.35;;;0.40;;
33268;SDS011;19640;50.944;5.260;2024-01-30T14:38:04;2.60;;;0.45;;
33268;SDS011;19640;50.944;5.260;2024-01-30T14:40:30;1.83;;;0.40;;
33268;SDS011;19640;50.944;5.260;2024-01-30T14:42:56;0.65;;;0.40;;